Terminal Aerodrome Forecast
Issued by NWS

Home | Current Version | Previous Version | Text Only | Print | Product List | Glossary On
Versions: 1 2 3 4 5 6 7 8 9 10 11 12 13
000
FTUS46 KPDT 140000 AAA
TAFALW
TAF AMD
KALW 140015Z 1400/1424 02010G20KT P6SM -SHRA SCT050 OVC090
      TEMPO 1401/1405 20015G25KT -TSRA BKN050CB
     FM140500 18011KT P6SM -SHRA OVC120
     FM141000 20009KT P6SM SCT100 BKN120
     FM141500 21008KT P6SM SCT120 BKN150
     FM142100 22004KT P6SM SCT150=

USA.gov is the U.S. government's official web portal to all federal, state and local government web resources and services.